sensor_id;sensor_type;location;lat;lon;timestamp;temperature;humidity
66019;HTU21D;52787;51.084;5.816;2023-04-07T00:01:52;10.81;89.23
66019;HTU21D;52787;51.084;5.816;2023-04-07T00:04:18;10.84;89.21
66019;HTU21D;52787;51.084;5.816;2023-04-07T00:06:44;10.83;89.26
66019;HTU21D;52787;51.084;5.816;2023-04-07T00:09:10;10.81;89.15
66019;HTU21D;52787;51.084;5.816;2023-04-07T00:11:37;10.84;89.18
66019;HTU21D;52787;51.084;5.816;2023-04-07T00:14:02;10.84;89.15
66019;HTU21D;52787;51.084;5.816;2023-04-07T00:16:29;10.81;89.21
66019;HTU21D;52787;51.084;5.816;2023-04-07T00:18:54;10.79;89.27
66019;HTU21D;52787;51.084;5.816;2023-04-07T00:21:20;10.80;89.39
66019;HTU21D;52787;51.084;5.816;2023-04-07T00:23:46;10.78;89.41
66019;HTU21D;52787;51.084;5.816;2023-04-07T00:26:12;10.77;89.57
66019;HTU21D;52787;51.084;5.816;2023-04-07T00:28:38;10.72;89.70
66019;HTU21D;52787;51.084;5.816;2023-04-07T00:31:04;10.70;89.92
66019;HTU21D;52787;51.084;5.816;2023-04-07T00:33:30;10.67;90.12
66019;HTU21D;52787;51.084;5.816;2023-04-07T00:35:55;10.67;90.08
66019;HTU21D;52787;51.084;5.816;2023-04-07T00:38:23;10.66;90.17
66019;HTU21D;52787;51.084;5.816;2023-04-07T00:40:48;10.68;90.12
66019;HTU21D;52787;51.084;5.816;2023-04-07T00:43:15;10.69;90.01
66019;HTU21D;52787;51.084;5.816;2023-04-07T00:45:41;10.71;89.80
66019;HTU21D;52787;51.084;5.816;2023-04-07T00:48:07;10.72;89.82
66019;HTU21D;52787;51.084;5.816;2023-04-07T00:50:33;10.70;89.63
66019;HTU21D;52787;51.084;5.816;2023-04-07T00:52:58;10.73;89.44
66019;HTU21D;52787;51.084;5.816;2023-04-07T00:55:25;10.72;89.39
66019;HTU21D;52787;51.084;5.816;2023-04-07T00:57:50;10.72;89.27
66019;HTU21D;52787;51.084;5.816;2023-04-07T01:00:16;10.70;89.24
66019;HTU21D;52787;51.084;5.816;2023-04-07T01:02:56;10.66;89.25
66019;HTU21D;52787;51.084;5.816;2023-04-07T01:05:52;10.57;89.50
66019;HTU21D;52787;51.084;5.816;2023-04-07T01:08:34;10.54;89.48
66019;HTU21D;52787;51.084;5.816;2023-04-07T01:11:29;10.52;89.52
66019;HTU21D;52787;51.084;5.816;2023-04-07T01:14:09;10.52;89.50
66019;HTU21D;52787;51.084;5.816;2023-04-07T01:16:46;10.50;89.44
66019;HTU21D;52787;51.084;5.816;2023-04-07T01:22:11;10.44;89.57
66019;HTU21D;52787;51.084;5.816;2023-04-07T01:30:18;10.52;88.95
66019;HTU21D;52787;51.084;5.816;2023-04-07T01:32:51;10.55;88.64
66019;HTU21D;52787;51.084;5.816;2023-04-07T01:35:18;10.57;88.46
66019;HTU21D;52787;51.084;5.816;2023-04-07T01:37:45;10.54;88.17
66019;HTU21D;52787;51.084;5.816;2023-04-07T01:40:15;10.56;88.16
66019;HTU21D;52787;51.084;5.816;2023-04-07T01:42:42;10.57;87.96
66019;HTU21D;52787;51.084;5.816;2023-04-07T01:45:09;10.56;87.79
66019;HTU21D;52787;51.084;5.816;2023-04-07T01:47:37;10.53;87.77
66019;HTU21D;52787;51.084;5.816;2023-04-07T01:50:05;10.56;87.66
66019;HTU21D;52787;51.084;5.816;2023-04-07T01:52:35;10.57;87.49
66019;HTU21D;52787;51.084;5.816;2023-04-07T01:55:03;10.57;87.40
66019;HTU21D;52787;51.084;5.816;2023-04-07T01:57:29;10.60;87.51
66019;HTU21D;52787;51.084;5.816;2023-04-07T01:59:55;10.65;87.46
66019;HTU21D;52787;51.084;5.816;2023-04-07T02:02:21;10.67;87.11
66019;HTU21D;52787;51.084;5.816;2023-04-07T02:07:39;10.67;87.28
66019;HTU21D;52787;51.084;5.816;2023-04-07T02:10:12;10.69;87.35
66019;HTU21D;52787;51.084;5.816;2023-04-07T02:12:40;10.70;87.19
66019;HTU21D;52787;51.084;5.816;2023-04-07T02:15:11;10.72;87.48
66019;HTU21D;52787;51.084;5.816;2023-04-07T02:17:42;10.72;87.35
66019;HTU21D;52787;51.084;5.816;2023-04-07T02:20:13;10.71;87.35
66019;HTU21D;52787;51.084;5.816;2023-04-07T02:22:40;10.72;87.46
66019;HTU21D;52787;51.084;5.816;2023-04-07T02:25:29;10.72;87.40
66019;HTU21D;52787;51.084;5.816;2023-04-07T02:27:58;10.74;87.22
66019;HTU21D;52787;51.084;5.816;2023-04-07T02:30:26;10.74;87.25
66019;HTU21D;52787;51.084;5.816;2023-04-07T02:32:52;10.71;87.37
66019;HTU21D;52787;51.084;5.816;2023-04-07T02:35:18;10.68;87.47
66019;HTU21D;52787;51.084;5.816;2023-04-07T02:37:45;10.69;87.60
66019;HTU21D;52787;51.084;5.816;2023-04-07T02:40:12;10.69;87.57
66019;HTU21D;52787;51.084;5.816;2023-04-07T02:42:38;10.62;87.76
66019;HTU21D;52787;51.084;5.816;2023-04-07T02:45:05;10.57;88.07
66019;HTU21D;52787;51.084;5.816;2023-04-07T02:47:32;10.58;88.05
66019;HTU21D;52787;51.084;5.816;2023-04-07T02:49:59;10.62;88.10
66019;HTU21D;52787;51.084;5.816;2023-04-07T02:52:24;10.59;87.73
66019;HTU21D;52787;51.084;5.816;2023-04-07T02:54:50;10.62;87.96
66019;HTU21D;52787;51.084;5.816;2023-04-07T02:57:17;10.60;87.80
66019;HTU21D;52787;51.084;5.816;2023-04-07T02:59:43;10.63;87.89
66019;HTU21D;52787;51.084;5.816;2023-04-07T03:02:08;10.63;87.73
66019;HTU21D;52787;51.084;5.816;2023-04-07T03:04:34;10.62;87.98
66019;HTU21D;52787;51.084;5.816;2023-04-07T03:07:00;10.63;87.82
66019;HTU21D;52787;51.084;5.816;2023-04-07T03:09:26;10.58;87.81
66019;HTU21D;52787;51.084;5.816;2023-04-07T03:11:52;10.57;87.93
66019;HTU21D;52787;51.084;5.816;2023-04-07T03:14:18;10.62;87.80
66019;HTU21D;52787;51.084;5.816;2023-04-07T03:16:44;10.60;87.70
66019;HTU21D;52787;51.084;5.816;2023-04-07T03:19:10;10.60;87.66
66019;HTU21D;52787;51.084;5.816;2023-04-07T03:21:37;10.60;87.73
66019;HTU21D;52787;51.084;5.816;2023-04-07T03:24:05;10.63;87.88
66019;HTU21D;52787;51.084;5.816;2023-04-07T03:26:31;10.63;87.87
66019;HTU21D;52787;51.084;5.816;2023-04-07T03:28:57;10.66;87.84
66019;HTU21D;52787;51.084;5.816;2023-04-07T03:31:23;10.67;87.67
66019;HTU21D;52787;51.084;5.816;2023-04-07T03:33:49;10.68;87.57
66019;HTU21D;52787;51.084;5.816;2023-04-07T03:36:19;10.67;87.52
66019;HTU21D;52787;51.084;5.816;2023-04-07T03:38:46;10.65;87.48
66019;HTU21D;52787;51.084;5.816;2023-04-07T03:41:12;10.57;87.57
66019;HTU21D;52787;51.084;5.816;2023-04-07T03:43:38;10.58;87.67
66019;HTU21D;52787;51.084;5.816;2023-04-07T03:46:04;10.58;87.60
66019;HTU21D;52787;51.084;5.816;2023-04-07T03:48:30;10.59;87.35
66019;HTU21D;52787;51.084;5.816;2023-04-07T03:50:56;10.62;87.38
66019;HTU21D;52787;51.084;5.816;2023-04-07T03:53:21;10.60;87.36
66019;HTU21D;52787;51.084;5.816;2023-04-07T03:55:47;10.62;87.20
66019;HTU21D;52787;51.084;5.816;2023-04-07T03:58:13;10.60;86.86
66019;HTU21D;52787;51.084;5.816;2023-04-07T04:00:43;10.50;86.19
66019;HTU21D;52787;51.084;5.816;2023-04-07T04:03:09;10.52;85.84
66019;HTU21D;52787;51.084;5.816;2023-04-07T04:05:35;10.50;85.20
66019;HTU21D;52787;51.084;5.816;2023-04-07T04:08:01;10.51;84.87
66019;HTU21D;52787;51.084;5.816;2023-04-07T04:10:27;10.49;84.32
66019;HTU21D;52787;51.084;5.816;2023-04-07T04:12:53;10.40;84.35
66019;HTU21D;52787;51.084;5.816;2023-04-07T04:15:18;10.35;84.26
66019;HTU21D;52787;51.084;5.816;2023-04-07T04:17:44;10.33;84.48
66019;HTU21D;52787;51.084;5.816;2023-04-07T04:20:10;10.29;84.32
66019;HTU21D;52787;51.084;5.816;2023-04-07T04:22:36;10.31;84.38
66019;HTU21D;52787;51.084;5.816;2023-04-07T04:25:02;10.33;84.11
66019;HTU21D;52787;51.084;5.816;2023-04-07T04:27:28;10.31;83.77
66019;HTU21D;52787;51.084;5.816;2023-04-07T04:29:54;10.27;83.80
66019;HTU21D;52787;51.084;5.816;2023-04-07T04:32:20;10.23;83.70
66019;HTU21D;52787;51.084;5.816;2023-04-07T04:34:46;10.22;84.02
66019;HTU21D;52787;51.084;5.816;2023-04-07T04:37:11;10.25;84.03
66019;HTU21D;52787;51.084;5.816;2023-04-07T04:39:37;10.24;83.92
66019;HTU21D;52787;51.084;5.816;2023-04-07T04:42:04;10.24;83.69
66019;HTU21D;52787;51.084;5.816;2023-04-07T04:44:30;10.22;83.69
66019;HTU21D;52787;51.084;5.816;2023-04-07T04:46:56;10.18;83.68
66019;HTU21D;52787;51.084;5.816;2023-04-07T04:49:22;10.15;83.73
66019;HTU21D;52787;51.084;5.816;2023-04-07T04:51:48;10.15;83.75
66019;HTU21D;52787;51.084;5.816;2023-04-07T04:54:15;10.20;83.83
66019;HTU21D;52787;51.084;5.816;2023-04-07T04:56:41;10.23;83.61
66019;HTU21D;52787;51.084;5.816;2023-04-07T04:59:07;10.24;83.51
66019;HTU21D;52787;51.084;5.816;2023-04-07T05:01:33;10.22;83.53
66019;HTU21D;52787;51.084;5.816;2023-04-07T05:03:58;10.20;83.42
66019;HTU21D;52787;51.084;5.816;2023-04-07T05:06:24;10.22;83.51
66019;HTU21D;52787;51.084;5.816;2023-04-07T05:08:52;10.23;82.93
66019;HTU21D;52787;51.084;5.816;2023-04-07T05:11:18;10.25;83.08
66019;HTU21D;52787;51.084;5.816;2023-04-07T05:13:43;10.31;83.12
66019;HTU21D;52787;51.084;5.816;2023-04-07T05:16:09;10.37;82.73
66019;HTU21D;52787;51.084;5.816;2023-04-07T05:18:35;10.41;82.53
66019;HTU21D;52787;51.084;5.816;2023-04-07T05:21:01;10.44;82.62
66019;HTU21D;52787;51.084;5.816;2023-04-07T05:23:27;10.49;82.52
66019;HTU21D;52787;51.084;5.816;2023-04-07T05:25:52;10.55;82.31
66019;HTU21D;52787;51.084;5.816;2023-04-07T05:28:18;10.53;82.13
66019;HTU21D;52787;51.084;5.816;2023-04-07T05:30:44;10.51;82.34
66019;HTU21D;52787;51.084;5.816;2023-04-07T05:33:10;10.51;82.37
66019;HTU21D;52787;51.084;5.816;2023-04-07T05:35:36;10.51;82.35
66019;HTU21D;52787;51.084;5.816;2023-04-07T05:38:01;10.50;82.54
66019;HTU21D;52787;51.084;5.816;2023-04-07T05:40:27;10.50;82.55
66019;HTU21D;52787;51.084;5.816;2023-04-07T05:42:55;10.49;82.44
66019;HTU21D;52787;51.084;5.816;2023-04-07T05:45:21;10.42;82.64
66019;HTU21D;52787;51.084;5.816;2023-04-07T05:47:47;10.34;83.16
66019;HTU21D;52787;51.084;5.816;2023-04-07T05:50:15;10.29;83.67
66019;HTU21D;52787;51.084;5.816;2023-04-07T05:52:42;10.33;83.81
66019;HTU21D;52787;51.084;5.816;2023-04-07T05:55:08;10.35;83.68
66019;HTU21D;52787;51.084;5.816;2023-04-07T05:57:34;10.31;83.45
66019;HTU21D;52787;51.084;5.816;2023-04-07T06:00:00;10.29;83.65
66019;HTU21D;52787;51.084;5.816;2023-04-07T06:02:26;10.30;83.72
66019;HTU21D;52787;51.084;5.816;2023-04-07T06:04:52;10.31;83.63
66019;HTU21D;52787;51.084;5.816;2023-04-07T06:07:18;10.33;83.65
66019;HTU21D;52787;51.084;5.816;2023-04-07T06:09:43;10.33;83.61
66019;HTU21D;52787;51.084;5.816;2023-04-07T06:12:10;10.34;83.58
66019;HTU21D;52787;51.084;5.816;2023-04-07T06:14:37;10.39;83.31
66019;HTU21D;52787;51.084;5.816;2023-04-07T06:17:03;10.38;83.12
66019;HTU21D;52787;51.084;5.816;2023-04-07T06:19:28;10.37;83.32
66019;HTU21D;52787;51.084;5.816;2023-04-07T06:21:54;10.36;83.42
66019;HTU21D;52787;51.084;5.816;2023-04-07T06:24:20;10.41;83.55
66019;HTU21D;52787;51.084;5.816;2023-04-07T06:26:51;10.46;83.09
66019;HTU21D;52787;51.084;5.816;2023-04-07T06:29:17;10.46;83.00
66019;HTU21D;52787;51.084;5.816;2023-04-07T06:31:43;10.44;83.20
66019;HTU21D;52787;51.084;5.816;2023-04-07T06:34:09;10.43;83.37
66019;HTU21D;52787;51.084;5.816;2023-04-07T06:36:34;10.44;83.32
66019;HTU21D;52787;51.084;5.816;2023-04-07T06:39:00;10.38;83.42
66019;HTU21D;52787;51.084;5.816;2023-04-07T06:41:26;10.34;83.63
66019;HTU21D;52787;51.084;5.816;2023-04-07T06:43:52;10.35;83.61
66019;HTU21D;52787;51.084;5.816;2023-04-07T06:46:18;10.34;83.76
66019;HTU21D;52787;51.084;5.816;2023-04-07T06:48:44;10.34;83.82
66019;HTU21D;52787;51.084;5.816;2023-04-07T06:51:10;10.28;83.84
66019;HTU21D;52787;51.084;5.816;2023-04-07T06:53:36;10.22;84.00
66019;HTU21D;52787;51.084;5.816;2023-04-07T06:56:07;10.21;84.36
66019;HTU21D;52787;51.084;5.816;2023-04-07T06:58:34;10.14;84.55
66019;HTU21D;52787;51.084;5.816;2023-04-07T07:01:01;10.00;85.07
66019;HTU21D;52787;51.084;5.816;2023-04-07T07:03:27;10.00;85.26
66019;HTU21D;52787;51.084;5.816;2023-04-07T07:05:54;10.04;85.10
66019;HTU21D;52787;51.084;5.816;2023-04-07T07:08:23;9.97;85.36
66019;HTU21D;52787;51.084;5.816;2023-04-07T07:10:50;9.96;85.18
66019;HTU21D;52787;51.084;5.816;2023-04-07T07:13:18;10.03;85.28
66019;HTU21D;52787;51.084;5.816;2023-04-07T07:15:45;10.11;84.88
66019;HTU21D;52787;51.084;5.816;2023-04-07T07:18:11;10.11;84.73
66019;HTU21D;52787;51.084;5.816;2023-04-07T07:20:37;10.14;84.83
66019;HTU21D;52787;51.084;5.816;2023-04-07T07:23:03;10.15;84.88
66019;HTU21D;52787;51.084;5.816;2023-04-07T07:25:28;10.20;84.62
66019;HTU21D;52787;51.084;5.816;2023-04-07T07:27:54;10.29;84.52
66019;HTU21D;52787;51.084;5.816;2023-04-07T07:30:21;10.38;84.29
66019;HTU21D;52787;51.084;5.816;2023-04-07T07:32:48;10.45;84.00
66019;HTU21D;52787;51.084;5.816;2023-04-07T07:35:14;10.52;83.65
66019;HTU21D;52787;51.084;5.816;2023-04-07T07:37:40;10.54;83.62
66019;HTU21D;52787;51.084;5.816;2023-04-07T07:40:07;10.59;83.52
66019;HTU21D;52787;51.084;5.816;2023-04-07T07:42:33;10.66;83.54
66019;HTU21D;52787;51.084;5.816;2023-04-07T07:44:58;10.70;83.45
66019;HTU21D;52787;51.084;5.816;2023-04-07T07:47:24;10.73;83.16
66019;HTU21D;52787;51.084;5.816;2023-04-07T07:49:51;10.81;82.97
66019;HTU21D;52787;51.084;5.816;2023-04-07T07:52:17;10.95;82.87
66019;HTU21D;52787;51.084;5.816;2023-04-07T07:54:43;11.01;82.00
66019;HTU21D;52787;51.084;5.816;2023-04-07T07:57:09;11.02;81.73
66019;HTU21D;52787;51.084;5.816;2023-04-07T07:59:34;11.01;81.73
66019;HTU21D;52787;51.084;5.816;2023-04-07T08:02:00;11.03;81.91
66019;HTU21D;52787;51.084;5.816;2023-04-07T08:04:26;11.07;81.88
66019;HTU21D;52787;51.084;5.816;2023-04-07T08:06:52;11.05;81.80
66019;HTU21D;52787;51.084;5.816;2023-04-07T08:09:19;11.07;82.26
66019;HTU21D;52787;51.084;5.816;2023-04-07T08:11:45;11.13;81.97
66019;HTU21D;52787;51.084;5.816;2023-04-07T08:14:13;11.14;81.82
66019;HTU21D;52787;51.084;5.816;2023-04-07T08:16:39;11.17;81.58
66019;HTU21D;52787;51.084;5.816;2023-04-07T08:19:05;11.26;81.55
66019;HTU21D;52787;51.084;5.816;2023-04-07T08:21:31;11.34;81.62
66019;HTU21D;52787;51.084;5.816;2023-04-07T08:23:57;11.36;81.37
66019;HTU21D;52787;51.084;5.816;2023-04-07T08:26:24;11.32;81.50
66019;HTU21D;52787;51.084;5.816;2023-04-07T08:28:50;11.31;81.35
66019;HTU21D;52787;51.084;5.816;2023-04-07T08:31:16;11.27;81.36
66019;HTU21D;52787;51.084;5.816;2023-04-07T08:33:42;11.27;81.55
66019;HTU21D;52787;51.084;5.816;2023-04-07T08:36:08;11.26;81.48
66019;HTU21D;52787;51.084;5.816;2023-04-07T08:38:33;11.28;81.82
66019;HTU21D;52787;51.084;5.816;2023-04-07T08:41:10;11.31;81.63
66019;HTU21D;52787;51.084;5.816;2023-04-07T08:43:38;11.31;81.61
66019;HTU21D;52787;51.084;5.816;2023-04-07T08:46:08;11.31;81.70
66019;HTU21D;52787;51.084;5.816;2023-04-07T08:48:37;11.36;81.98
66019;HTU21D;52787;51.084;5.816;2023-04-07T08:51:07;11.49;81.81
66019;HTU21D;52787;51.084;5.816;2023-04-07T08:53:40;11.55;80.63
66019;HTU21D;52787;51.084;5.816;2023-04-07T08:56:16;11.54;80.79
66019;HTU21D;52787;51.084;5.816;2023-04-07T08:58:45;11.51;80.91
66019;HTU21D;52787;51.084;5.816;2023-04-07T09:01:12;11.48;80.91
66019;HTU21D;52787;51.084;5.816;2023-04-07T09:03:41;11.44;81.07
66019;HTU21D;52787;51.084;5.816;2023-04-07T09:06:09;11.43;81.07
66019;HTU21D;52787;51.084;5.816;2023-04-07T09:08:36;11.45;81.06
66019;HTU21D;52787;51.084;5.816;2023-04-07T09:11:02;11.53;80.62
66019;HTU21D;52787;51.084;5.816;2023-04-07T09:13:28;11.53;80.41
66019;HTU21D;52787;51.084;5.816;2023-04-07T09:15:56;11.56;80.29
66019;HTU21D;52787;51.084;5.816;2023-04-07T09:18:22;11.58;80.45
66019;HTU21D;52787;51.084;5.816;2023-04-07T09:20:56;11.66;80.33
66019;HTU21D;52787;51.084;5.816;2023-04-07T09:23:31;11.70;79.62
66019;HTU21D;52787;51.084;5.816;2023-04-07T09:26:01;11.73;79.25
66019;HTU21D;52787;51.084;5.816;2023-04-07T09:28:44;11.92;78.91
66019;HTU21D;52787;51.084;5.816;2023-04-07T09:31:11;12.10;78.17
66019;HTU21D;52787;51.084;5.816;2023-04-07T09:33:37;12.21;76.86
66019;HTU21D;52787;51.084;5.816;2023-04-07T09:36:04;12.11;76.70
66019;HTU21D;52787;51.084;5.816;2023-04-07T09:38:35;11.99;76.62
66019;HTU21D;52787;51.084;5.816;2023-04-07T09:43:38;12.08;76.33
66019;HTU21D;52787;51.084;5.816;2023-04-07T09:46:13;12.22;74.46
66019;HTU21D;52787;51.084;5.816;2023-04-07T09:48:41;12.37;74.07
66019;HTU21D;52787;51.084;5.816;2023-04-07T09:51:14;12.49;73.37
66019;HTU21D;52787;51.084;5.816;2023-04-07T09:53:48;12.65;72.41
66019;HTU21D;52787;51.084;5.816;2023-04-07T09:56:20;12.78;72.35
66019;HTU21D;52787;51.084;5.816;2023-04-07T09:58:50;12.96;71.35
66019;HTU21D;52787;51.084;5.816;2023-04-07T10:01:17;13.19;71.12
66019;HTU21D;52787;51.084;5.816;2023-04-07T10:03:45;13.40;69.77
66019;HTU21D;52787;51.084;5.816;2023-04-07T10:06:12;13.49;70.07
66019;HTU21D;52787;51.084;5.816;2023-04-07T10:08:41;13.54;69.61
66019;HTU21D;52787;51.084;5.816;2023-04-07T10:11:08;13.54;68.83
66019;HTU21D;52787;51.084;5.816;2023-04-07T10:13:36;13.45;69.02
66019;HTU21D;52787;51.084;5.816;2023-04-07T10:16:04;13.37;68.94
66019;HTU21D;52787;51.084;5.816;2023-04-07T10:18:34;13.30;69.39
66019;HTU21D;52787;51.084;5.816;2023-04-07T10:21:03;13.18;69.78
66019;HTU21D;52787;51.084;5.816;2023-04-07T10:26:23;12.93;71.10
66019;HTU21D;52787;51.084;5.816;2023-04-07T10:28:57;12.80;71.67
66019;HTU21D;52787;51.084;5.816;2023-04-07T10:31:27;12.67;71.73
66019;HTU21D;52787;51.084;5.816;2023-04-07T10:33:53;12.53;72.17
66019;HTU21D;52787;51.084;5.816;2023-04-07T10:36:21;12.43;73.12
66019;HTU21D;52787;51.084;5.816;2023-04-07T10:47:06;12.80;72.19
66019;HTU21D;52787;51.084;5.816;2023-04-07T10:49:33;12.99;72.25
66019;HTU21D;52787;51.084;5.816;2023-04-07T10:54:38;13.45;70.29
66019;HTU21D;52787;51.084;5.816;2023-04-07T10:57:13;13.63;70.11
66019;HTU21D;52787;51.084;5.816;2023-04-07T11:00:13;13.66;69.39
66019;HTU21D;52787;51.084;5.816;2023-04-07T11:02:39;13.64;69.61
66019;HTU21D;52787;51.084;5.816;2023-04-07T11:05:05;13.55;68.91
66019;HTU21D;52787;51.084;5.816;2023-04-07T11:07:46;13.50;69.48
66019;HTU21D;52787;51.084;5.816;2023-04-07T11:10:16;13.38;69.27
66019;HTU21D;52787;51.084;5.816;2023-04-07T11:12:44;13.21;69.96
66019;HTU21D;52787;51.084;5.816;2023-04-07T11:15:23;13.06;69.94
66019;HTU21D;52787;51.084;5.816;2023-04-07T11:18:17;12.94;70.42
66019;HTU21D;52787;51.084;5.816;2023-04-07T11:20:56;12.80;71.01
66019;HTU21D;52787;51.084;5.816;2023-04-07T11:23:25;12.76;71.48
66019;HTU21D;52787;51.084;5.816;2023-04-07T11:26:01;12.70;71.42
66019;HTU21D;52787;51.084;5.816;2023-04-07T11:28:29;12.57;72.54
66019;HTU21D;52787;51.084;5.816;2023-04-07T11:30:56;12.52;72.98
66019;HTU21D;52787;51.084;5.816;2023-04-07T11:33:28;12.58;73.58
66019;HTU21D;52787;51.084;5.816;2023-04-07T11:35:57;12.60;72.52
66019;HTU21D;52787;51.084;5.816;2023-04-07T11:38:34;12.53;71.99
66019;HTU21D;52787;51.084;5.816;2023-04-07T11:41:10;12.52;72.10
66019;HTU21D;52787;51.084;5.816;2023-04-07T11:43:41;12.61;71.74
66019;HTU21D;52787;51.084;5.816;2023-04-07T11:46:13;12.74;71.73
66019;HTU21D;52787;51.084;5.816;2023-04-07T11:48:42;12.99;71.30
66019;HTU21D;52787;51.084;5.816;2023-04-07T11:51:20;13.23;69.96
66019;HTU21D;52787;51.084;5.816;2023-04-07T11:53:54;13.58;69.59
66019;HTU21D;52787;51.084;5.816;2023-04-07T11:56:21;13.94;66.78
66019;HTU21D;52787;51.084;5.816;2023-04-07T11:58:54;14.17;66.86
66019;HTU21D;52787;51.084;5.816;2023-04-07T12:01:21;14.43;65.81
66019;HTU21D;52787;51.084;5.816;2023-04-07T12:04:03;14.66;65.01
66019;HTU21D;52787;51.084;5.816;2023-04-07T12:06:34;14.69;62.96
66019;HTU21D;52787;51.084;5.816;2023-04-07T12:09:24;14.71;64.71
66019;HTU21D;52787;51.084;5.816;2023-04-07T12:11:52;15.07;63.37
66019;HTU21D;52787;51.084;5.816;2023-04-07T12:14:18;15.27;61.86
66019;HTU21D;52787;51.084;5.816;2023-04-07T12:16:44;15.37;61.02
66019;HTU21D;52787;51.084;5.816;2023-04-07T12:19:09;15.48;61.37
66019;HTU21D;52787;51.084;5.816;2023-04-07T12:21:35;15.65;60.64
66019;HTU21D;52787;51.084;5.816;2023-04-07T12:24:01;16.03;59.86
66019;HTU21D;52787;51.084;5.816;2023-04-07T12:26:27;16.54;58.63
66019;HTU21D;52787;51.084;5.816;2023-04-07T12:28:53;16.88;55.54
66019;HTU21D;52787;51.084;5.816;2023-04-07T12:31:20;16.90;56.39
66019;HTU21D;52787;51.084;5.816;2023-04-07T12:33:46;16.79;56.39
66019;HTU21D;52787;51.084;5.816;2023-04-07T12:36:11;16.55;56.83
66019;HTU21D;52787;51.084;5.816;2023-04-07T12:38:37;16.17;57.47
66019;HTU21D;52787;51.084;5.816;2023-04-07T12:41:03;15.74;58.73
66019;HTU21D;52787;51.084;5.816;2023-04-07T12:43:30;15.51;60.28
66019;HTU21D;52787;51.084;5.816;2023-04-07T12:45:56;15.37;61.04
66019;HTU21D;52787;51.084;5.816;2023-04-07T12:48:22;15.01;61.31
66019;HTU21D;52787;51.084;5.816;2023-04-07T12:50:48;14.66;62.76
66019;HTU21D;52787;51.084;5.816;2023-04-07T12:53:14;14.28;63.76
66019;HTU21D;52787;51.084;5.816;2023-04-07T12:55:40;14.05;64.87
66019;HTU21D;52787;51.084;5.816;2023-04-07T12:58:07;13.81;66.04
66019;HTU21D;52787;51.084;5.816;2023-04-07T13:00:33;13.66;66.85
66019;HTU21D;52787;51.084;5.816;2023-04-07T13:03:00;13.65;67.78
66019;HTU21D;52787;51.084;5.816;2023-04-07T13:05:25;13.64;68.11
66019;HTU21D;52787;51.084;5.816;2023-04-07T13:07:52;13.69;68.02
66019;HTU21D;52787;51.084;5.816;2023-04-07T13:10:18;13.73;67.77
66019;HTU21D;52787;51.084;5.816;2023-04-07T13:12:44;13.80;67.01
66019;HTU21D;52787;51.084;5.816;2023-04-07T13:15:10;13.84;65.87
66019;HTU21D;52787;51.084;5.816;2023-04-07T13:17:35;13.81;66.18
66019;HTU21D;52787;51.084;5.816;2023-04-07T13:20:04;13.76;66.51
66019;HTU21D;52787;51.084;5.816;2023-04-07T13:22:31;13.70;66.69
66019;HTU21D;52787;51.084;5.816;2023-04-07T13:24:57;13.66;67.03
66019;HTU21D;52787;51.084;5.816;2023-04-07T13:27:23;13.51;67.22
66019;HTU21D;52787;51.084;5.816;2023-04-07T13:29:49;13.33;67.59
66019;HTU21D;52787;51.084;5.816;2023-04-07T13:32:15;13.24;68.08
66019;HTU21D;52787;51.084;5.816;2023-04-07T13:34:41;13.14;68.62
66019;HTU21D;52787;51.084;5.816;2023-04-07T13:37:08;13.00;69.20
66019;HTU21D;52787;51.084;5.816;2023-04-07T13:39:34;12.85;70.60
66019;HTU21D;52787;51.084;5.816;2023-04-07T13:42:00;12.80;71.67
66019;HTU21D;52787;51.084;5.816;2023-04-07T13:44:27;12.82;71.96
66019;HTU21D;52787;51.084;5.816;2023-04-07T13:46:54;12.77;73.14
66019;HTU21D;52787;51.084;5.816;2023-04-07T13:49:21;12.70;72.76
66019;HTU21D;52787;51.084;5.816;2023-04-07T13:51:47;12.65;72.69
66019;HTU21D;52787;51.084;5.816;2023-04-07T13:54:13;12.65;72.44
66019;HTU21D;52787;51.084;5.816;2023-04-07T13:56:41;12.70;72.48
66019;HTU21D;52787;51.084;5.816;2023-04-07T13:59:07;12.70;72.47
66019;HTU21D;52787;51.084;5.816;2023-04-07T14:01:34;12.70;70.97
66019;HTU21D;52787;51.084;5.816;2023-04-07T14:04:01;12.64;70.43
66019;HTU21D;52787;51.084;5.816;2023-04-07T14:06:27;12.65;70.61
66019;HTU21D;52787;51.084;5.816;2023-04-07T14:08:53;12.58;70.09
66019;HTU21D;52787;51.084;5.816;2023-04-07T14:11:20;12.60;69.79
66019;HTU21D;52787;51.084;5.816;2023-04-07T14:13:47;12.65;70.13
66019;HTU21D;52787;51.084;5.816;2023-04-07T14:16:13;12.62;70.27
66019;HTU21D;52787;51.084;5.816;2023-04-07T14:18:39;12.62;69.81
66019;HTU21D;52787;51.084;5.816;2023-04-07T14:21:05;12.62;69.73
66019;HTU21D;52787;51.084;5.816;2023-04-07T14:23:31;12.63;69.46
66019;HTU21D;52787;51.084;5.816;2023-04-07T14:25:58;12.76;68.82
66019;HTU21D;52787;51.084;5.816;2023-04-07T14:28:25;12.79;68.66
66019;HTU21D;52787;51.084;5.816;2023-04-07T14:30:52;12.92;68.67
66019;HTU21D;52787;51.084;5.816;2023-04-07T14:33:19;13.14;67.67
66019;HTU21D;52787;51.084;5.816;2023-04-07T14:35:46;13.25;67.25
66019;HTU21D;52787;51.084;5.816;2023-04-07T14:38:13;13.32;66.51
66019;HTU21D;52787;51.084;5.816;2023-04-07T14:40:40;13.39;65.11
66019;HTU21D;52787;51.084;5.816;2023-04-07T14:43:06;13.51;65.36
66019;HTU21D;52787;51.084;5.816;2023-04-07T14:45:33;13.49;65.43
66019;HTU21D;52787;51.084;5.816;2023-04-07T14:48:00;13.37;65.56
66019;HTU21D;52787;51.084;5.816;2023-04-07T14:50:25;13.37;66.14
66019;HTU21D;52787;51.084;5.816;2023-04-07T14:52:51;13.38;66.18
66019;HTU21D;52787;51.084;5.816;2023-04-07T14:55:18;13.45;65.89
66019;HTU21D;52787;51.084;5.816;2023-04-07T14:57:44;13.53;66.19
66019;HTU21D;52787;51.084;5.816;2023-04-07T15:00:10;13.73;65.99
66019;HTU21D;52787;51.084;5.816;2023-04-07T15:02:36;13.82;63.60
66019;HTU21D;52787;51.084;5.816;2023-04-07T15:05:02;13.90;64.12
66019;HTU21D;52787;51.084;5.816;2023-04-07T15:07:28;13.97;63.88
66019;HTU21D;52787;51.084;5.816;2023-04-07T15:09:54;14.11;63.01
66019;HTU21D;52787;51.084;5.816;2023-04-07T15:12:21;14.12;62.95
66019;HTU21D;52787;51.084;5.816;2023-04-07T15:14:50;14.09;62.92
66019;HTU21D;52787;51.084;5.816;2023-04-07T15:17:18;14.13;62.60
66019;HTU21D;52787;51.084;5.816;2023-04-07T15:19:46;14.04;63.10
66019;HTU21D;52787;51.084;5.816;2023-04-07T15:22:12;14.08;63.51
66019;HTU21D;52787;51.084;5.816;2023-04-07T15:24:38;14.12;62.41
66019;HTU21D;52787;51.084;5.816;2023-04-07T15:27:04;14.07;62.56
66019;HTU21D;52787;51.084;5.816;2023-04-07T15:29:30;14.04;62.93
66019;HTU21D;52787;51.084;5.816;2023-04-07T15:31:56;13.96;62.14
66019;HTU21D;52787;51.084;5.816;2023-04-07T15:34:22;13.86;62.84
66019;HTU21D;52787;51.084;5.816;2023-04-07T15:36:47;13.86;63.44
66019;HTU21D;52787;51.084;5.816;2023-04-07T15:39:13;13.83;63.69
66019;HTU21D;52787;51.084;5.816;2023-04-07T15:41:39;13.80;64.30
66019;HTU21D;52787;51.084;5.816;2023-04-07T15:44:05;13.77;64.10
66019;HTU21D;52787;51.084;5.816;2023-04-07T15:46:31;13.68;63.50